Time;durP1;ratioP1;P1;durP2;ratioP2;P2;SDS_P1;SDS_P2;PMS_P1;PMS_P2;Temp;Humidity;BMP_temperature;BMP_pressure;BME280_temperature;BME280_humidity;BME280_pressure;Samples;Min_cycle;Max_cycle;Signal;HPM_P1;HPM_P2
2021/07/09 00:01:41;;;;;;;16.73;6.20;;;;;;;17.14;86.25;101013.81;1770321;80;21025;-79
2021/07/09 00:04:08;;;;;;;13.45;5.67;;;;;;;17.09;86.50;101010.49;1784448;80;21087;-78
2021/07/09 00:06:36;;;;;;;12.85;5.50;;;;;;;17.05;86.74;101008.95;1784388;80;21566;-79
2021/07/09 00:09:04;;;;;;;21.77;5.78;;;;;;;17.03;86.89;101005.50;1783791;80;22024;-78
2021/07/09 00:11:34;;;;;;;14.60;6.05;;;;;;;17.01;87.07;101010.03;1784461;80;21052;-79
2021/07/09 00:14:03;;;;;;;12.43;6.03;;;;;;;16.96;87.18;101007.13;1784393;80;21342;-80
2021/07/09 00:16:30;;;;;;;12.05;6.22;;;;;;;16.90;87.19;101004.75;1783922;80;21044;-79
2021/07/09 00:18:59;;;;;;;13.10;6.03;;;;;;;16.86;87.20;101001.84;1783865;80;21411;-76
2021/07/09 00:21:27;;;;;;;15.28;5.67;;;;;;;16.83;87.49;101003.34;1784139;80;21501;-77
2021/07/09 00:23:55;;;;;;;21.90;5.53;;;;;;;16.80;87.55;101007.49;1784167;80;21076;-79
2021/07/09 00:26:22;;;;;;;9.88;5.10;;;;;;;16.77;87.75;101007.59;1783999;80;21024;-80
2021/07/09 00:28:49;;;;;;;14.53;5.62;;;;;;;16.73;88.05;100998.06;1784708;80;21044;-78
2021/07/09 00:31:16;;;;;;;13.72;6.17;;;;;;;16.71;87.99;101002.59;1779377;80;21570;-78
2021/07/09 00:33:43;;;;;;;16.55;6.37;;;;;;;16.67;88.41;101002.34;1753065;81;21523;-79
2021/07/09 00:36:12;;;;;;;11.50;4.83;;;;;;;16.61;88.77;101004.84;1753265;81;21075;-80
2021/07/09 00:38:39;;;;;;;10.75;5.10;;;;;;;16.55;88.72;101003.32;1752864;81;20985;-78
2021/07/09 00:41:06;;;;;;;12.90;5.30;;;;;;;16.53;88.78;101007.84;1752991;81;21083;-75
2021/07/09 00:43:34;;;;;;;8.83;5.33;;;;;;;16.52;88.61;101011.92;1752828;81;21530;-77
2021/07/09 00:46:01;;;;;;;10.85;5.67;;;;;;;16.49;88.63;101008.92;1753010;81;21151;-75
2021/07/09 00:48:28;;;;;;;9.43;3.75;;;;;;;16.46;88.69;101005.09;1752910;81;21033;-75
2021/07/09 00:51:07;;;;;;;10.50;3.50;;;;;;;16.43;88.50;101001.73;1753280;81;21378;-74
2021/07/09 00:53:34;;;;;;;8.48;5.60;;;;;;;16.43;88.31;101007.91;1768765;80;21110;-76
2021/07/09 00:56:02;;;;;;;14.38;5.70;;;;;;;16.41;88.31;101008.44;1757988;80;21013;-76
2021/07/09 00:58:30;;;;;;;12.68;5.45;;;;;;;16.32;88.57;100999.09;1757584;80;21929;-74
2021/07/09 01:00:57;;;;;;;14.58;5.12;;;;;;;16.29;88.91;100999.73;1783472;80;21055;-75
2021/07/09 01:03:24;;;;;;;10.45;6.30;;;;;;;16.27;89.00;100996.28;1778316;80;21579;-80
2021/07/09 01:05:51;;;;;;;11.05;5.65;;;;;;;16.25;89.34;100992.35;1778499;80;21084;-80
2021/07/09 01:08:19;;;;;;;11.38;5.65;;;;;;;16.20;89.37;100989.05;1742799;82;21037;-79
2021/07/09 01:10:48;;;;;;;9.60;5.25;;;;;;;16.18;89.37;100992.72;1747682;82;21060;-81
2021/07/09 01:13:15;;;;;;;10.75;5.55;;;;;;;16.15;89.48;100992.40;1747607;82;21044;-81
2021/07/09 01:15:43;;;;;;;10.30;5.42;;;;;;;16.14;89.64;100996.83;1747740;82;21049;-80
2021/07/09 01:18:10;;;;;;;11.75;5.08;;;;;;;16.11;89.87;100998.31;1747646;82;21032;-81
2021/07/09 01:20:40;;;;;;;7.90;4.40;;;;;;;16.08;89.89;100996.25;1747353;82;21032;-81
2021/07/09 01:23:07;;;;;;;13.78;5.53;;;;;;;16.08;89.90;101001.56;1747672;82;21545;-83
2021/07/09 01:25:34;;;;;;;8.60;4.78;;;;;;;16.06;89.87;100998.14;1747754;82;21598;-80
2021/07/09 01:28:05;;;;;;;9.15;4.50;;;;;;;16.04;89.85;100998.20;1747592;82;21056;-81
2021/07/09 01:30:31;;;;;;;;;;;;;;;16.01;89.73;100997.02;1750437;82;21400;-80
2021/07/09 01:32:58;;;;;;;10.00;4.53;;;;;;;15.98;89.85;101002.45;1743085;81;20231;-82
2021/07/09 01:35:26;;;;;;;11.25;5.25;;;;;;;15.91;89.87;100999.69;1747619;82;22129;-80
2021/07/09 01:38:06;;;;;;;11.50;5.72;;;;;;;15.87;90.02;100996.77;1747243;82;21100;-79
2021/07/09 01:40:38;;;;;;;11.78;5.75;;;;;;;15.82;90.10;100998.77;1747425;82;21068;-79
2021/07/09 01:43:05;;;;;;;10.82;6.03;;;;;;;15.74;90.32;100997.80;1747479;82;21518;-79
2021/07/09 01:45:33;;;;;;;14.87;5.78;;;;;;;15.67;90.50;100987.88;1747944;82;21403;-80
2021/07/09 01:47:59;;;;;;;10.53;4.90;;;;;;;15.64;90.84;100985.34;1747468;82;21340;-78
2021/07/09 01:50:26;;;;;;;10.10;5.12;;;;;;;15.60;91.03;100989.09;1747626;82;21076;-78
2021/07/09 01:52:53;;;;;;;10.20;5.78;;;;;;;15.57;91.42;100987.88;1747333;82;21084;-77
2021/07/09 01:55:21;;;;;;;14.47;6.15;;;;;;;15.57;91.43;100987.88;1747534;82;21052;-79
2021/07/09 01:57:48;;;;;;;9.75;4.95;;;;;;;15.56;91.45;100994.59;1747504;82;21107;-78
2021/07/09 02:00:20;;;;;;;9.65;5.10;;;;;;;15.54;91.47;100985.36;1774406;80;21086;-78
2021/07/09 02:02:47;;;;;;;14.68;6.33;;;;;;;15.54;91.43;100989.34;1778192;80;21060;-78
2021/07/09 02:05:17;;;;;;;11.38;5.92;;;;;;;15.52;91.64;100986.75;1778181;80;21067;-77
2021/07/09 02:07:47;;;;;;;11.53;5.20;;;;;;;15.50;91.67;100991.73;1778266;80;21060;-79
2021/07/09 02:10:17;;;;;;;11.50;5.62;;;;;;;15.47;91.60;100987.89;1778716;80;21563;-78
2021/07/09 02:12:44;;;;;;;13.38;6.15;;;;;;;15.45;91.58;100995.06;1778537;80;21105;-78
2021/07/09 02:15:14;;;;;;;11.38;6.00;;;;;;;15.42;91.91;100996.05;1754205;80;21558;-81
2021/07/09 02:17:43;;;;;;;12.00;5.55;;;;;;;15.40;92.00;101002.36;1757046;80;20982;-78
2021/07/09 02:20:15;;;;;;;13.10;5.65;;;;;;;15.39;92.00;100999.30;1778319;80;21056;-78
2021/07/09 02:22:44;;;;;;;15.35;5.62;;;;;;;15.41;92.05;101009.38;1778458;80;21853;-79
2021/07/09 02:25:11;;;;;;;14.58;5.50;;;;;;;15.39;92.09;101006.81;1778791;80;20989;-78
2021/07/09 02:27:39;;;;;;;13.00;5.85;;;;;;;15.40;91.81;101006.34;1778329;80;21161;-77
2021/07/09 02:30:10;;;;;;;11.97;5.35;;;;;;;15.42;91.95;101005.82;1778633;80;21446;-78
2021/07/09 02:32:40;;;;;;;10.70;5.65;;;;;;;15.42;91.63;101007.14;1777397;80;21508;-77
2021/07/09 02:35:11;;;;;;;17.90;5.50;;;;;;;15.45;91.68;101010.98;1778668;80;21045;-76
2021/07/09 02:37:38;;;;;;;7.92;4.37;;;;;;;15.42;91.77;101007.14;1778616;80;21067;-77
2021/07/09 02:40:09;;;;;;;12.00;6.30;;;;;;;15.46;91.70;101010.92;1778267;80;21504;-77
2021/07/09 02:42:38;;;;;;;13.45;5.80;;;;;;;15.54;91.32;101022.53;1778336;80;21076;-75
2021/07/09 02:45:09;;;;;;;14.25;6.35;;;;;;;15.62;91.07;101017.77;1778409;80;21060;-78
2021/07/09 02:47:39;;;;;;;13.35;6.12;;;;;;;15.71;90.74;101022.70;1778181;80;21300;-74
2021/07/09 02:50:08;;;;;;;12.15;5.10;;;;;;;15.78;90.80;101026.39;1777940;80;21101;-73
2021/07/09 02:52:36;;;;;;;12.23;5.92;;;;;;;15.87;90.33;101024.21;1777850;80;21165;-75
2021/07/09 02:55:09;;;;;;;20.88;7.00;;;;;;;15.98;89.29;101021.05;1777842;80;21001;-76
2021/07/09 02:57:36;;;;;;;11.35;6.75;;;;;;;16.10;89.51;101017.85;1777634;80;21788;-77
2021/07/09 03:00:06;;;;;;;13.38;7.00;;;;;;;16.26;89.31;101017.13;1777068;80;21100;-75
2021/07/09 03:02:33;;;;;;;14.68;6.35;;;;;;;16.38;88.65;101011.70;1746286;81;21112;-75
2021/07/09 03:05:00;;;;;;;15.90;7.00;;;;;;;16.50;87.45;101009.33;1746744;82;21567;-73
2021/07/09 03:07:28;;;;;;;16.97;6.58;;;;;;;16.65;86.91;101016.17;1746894;82;21095;-73
2021/07/09 03:09:56;;;;;;;13.35;5.78;;;;;;;16.81;86.79;101015.85;1761344;80;21040;-76
2021/07/09 03:12:26;;;;;;;11.33;5.80;;;;;;;16.96;86.47;101019.09;1778141;80;21064;-75
2021/07/09 03:16:52;;;;;;;12.75;6.33;;;;;;;17.29;85.84;101015.67;1795650;79;23075;-74
2021/07/09 03:19:19;;;;;;;16.27;6.65;;;;;;;17.39;84.96;101011.62;1755514;81;21048;-76
2021/07/09 03:21:46;;;;;;;15.23;5.33;;;;;;;17.57;84.02;101006.26;1755416;81;21530;-75
2021/07/09 03:24:13;;;;;;;12.07;5.03;;;;;;;17.74;83.38;101003.58;1755569;81;21032;-76
2021/07/09 03:26:40;;;;;;;10.55;5.15;;;;;;;17.90;82.50;101002.77;1755542;81;21578;-76
2021/07/09 03:29:07;;;;;;;13.25;5.70;;;;;;;18.07;81.47;101008.07;1747701;81;21018;-77
2021/07/09 03:31:36;;;;;;;8.93;4.65;;;;;;;18.23;80.55;101006.28;1747467;82;21473;-77
2021/07/09 03:34:02;;;;;;;10.88;5.33;;;;;;;18.41;80.02;101000.89;1747231;82;21374;-75
2021/07/09 03:36:30;;;;;;;12.23;5.03;;;;;;;18.59;79.07;100999.00;1747248;82;21069;-80
2021/07/09 03:38:58;;;;;;;7.45;4.58;;;;;;;18.78;78.22;101000.17;1747477;82;21551;-81
2021/07/09 03:41:25;;;;;;;8.70;4.42;;;;;;;18.94;77.79;100999.66;1747390;82;21139;-81
2021/07/09 03:43:53;;;;;;;13.43;6.08;;;;;;;19.13;76.52;101001.25;1747768;82;21660;-83
2021/07/09 03:46:20;;;;;;;11.12;5.28;;;;;;;19.31;75.66;101000.16;1748523;82;21840;-83
2021/07/09 03:48:47;;;;;;;10.45;4.78;;;;;;;19.52;74.62;100998.00;1748244;82;21037;-82
2021/07/09 03:51:14;;;;;;;12.78;5.65;;;;;;;19.74;73.94;101004.73;1747208;82;21124;-76
2021/07/09 03:53:41;;;;;;;9.70;4.85;;;;;;;19.96;73.00;101005.61;1747035;82;21025;-76
2021/07/09 03:56:08;;;;;;;16.50;5.08;;;;;;;20.15;72.54;100999.95;1749612;82;21083;-76
2021/07/09 03:58:35;;;;;;;10.35;5.10;;;;;;;20.36;72.13;100999.06;1748825;82;21188;-76
2021/07/09 04:01:03;;;;;;;10.32;4.67;;;;;;;20.58;71.16;100999.44;1747813;82;21641;-76
2021/07/09 04:03:31;;;;;;;14.47;5.22;;;;;;;20.83;70.59;101001.84;1747371;81;21864;-81
2021/07/09 04:05:57;;;;;;;14.40;5.12;;;;;;;21.10;69.97;101001.83;1747396;82;21033;-81
2021/07/09 04:08:24;;;;;;;14.78;4.45;;;;;;;21.37;69.07;101003.09;1747977;81;21626;-83
2021/07/09 04:10:53;;;;;;;13.13;5.15;;;;;;;21.65;67.69;100999.87;1734769;82;20998;-81
2021/07/09 04:13:20;;;;;;;9.90;4.33;;;;;;;21.87;67.28;100999.23;1724033;82;21279;-78
2021/07/09 04:15:47;;;;;;;11.18;4.72;;;;;;;22.08;66.27;101007.58;1721244;82;21017;-84
2021/07/09 04:18:14;;;;;;;8.23;4.55;;;;;;;22.33;65.51;100998.66;1742278;82;21049;-83
2021/07/09 04:20:43;;;;;;;10.65;4.60;;;;;;;22.57;64.42;101000.05;1729511;82;21619;-82
2021/07/09 04:23:10;;;;;;;11.33;4.78;;;;;;;22.83;63.77;100992.23;1732273;82;21349;-83
2021/07/09 04:25:38;;;;;;;15.23;5.03;;;;;;;23.10;62.30;100991.64;1732812;82;21057;-83
2021/07/09 04:28:05;;;;;;;11.03;4.45;;;;;;;23.38;60.97;100997.13;1724933;82;21728;-87
2021/07/09 04:30:34;;;;;;;10.08;4.22;;;;;;;23.70;60.35;100994.61;1724704;82;21778;-85
2021/07/09 04:33:01;;;;;;;17.35;4.50;;;;;;;24.02;59.58;100995.27;1743845;82;21669;-84
2021/07/09 04:35:28;;;;;;;18.25;4.62;;;;;;;24.34;56.47;100989.10;1736070;82;21919;-84
2021/07/09 04:37:56;;;;;;;17.40;4.17;;;;;;;24.63;53.66;100994.33;1748670;82;21073;-86
2021/07/09 04:40:22;;;;;;;16.97;3.98;;;;;;;24.91;46.54;100986.65;1749220;82;21049;-82
2021/07/09 04:42:49;;;;;;;12.30;3.52;;;;;;;25.12;45.23;100988.02;1748317;82;21048;-83
2021/07/09 04:45:18;;;;;;;12.28;2.37;;;;;;;25.33;44.21;100991.63;1732602;82;21057;-84
2021/07/09 04:47:47;;;;;;;12.13;2.90;;;;;;;25.58;43.97;100993.54;1729525;82;21057;-83
2021/07/09 04:50:13;;;;;;;9.58;2.65;;;;;;;25.85;42.17;100989.43;1718749;82;21079;-84
2021/07/09 04:52:40;;;;;;;8.90;2.87;;;;;;;26.09;40.83;100991.82;1718586;82;21084;-83
2021/07/09 04:55:09;;;;;;;7.33;2.50;;;;;;;26.30;40.42;100991.78;1720022;82;21089;-82
2021/07/09 04:57:36;;;;;;;10.70;2.42;;;;;;;26.49;39.44;100982.36;1742413;82;21061;-84
2021/07/09 05:00:05;;;;;;;10.40;2.58;;;;;;;26.68;39.86;100986.11;1722866;82;21545;-84
2021/07/09 05:02:32;;;;;;;6.90;2.17;;;;;;;26.96;38.79;100990.69;1723542;82;21081;-85
2021/07/09 05:05:01;;;;;;;9.98;2.50;;;;;;;27.13;37.39;100990.97;1744716;82;21069;-82
2021/07/09 05:07:29;;;;;;;12.53;2.67;;;;;;;27.27;37.18;100987.84;1728295;82;21236;-81
2021/07/09 05:09:56;;;;;;;7.80;2.70;;;;;;;27.45;36.84;100989.80;1731542;82;21061;-81
2021/07/09 05:12:24;;;;;;;9.00;2.70;;;;;;;27.62;36.40;100982.29;1717525;83;21611;-84
2021/07/09 05:14:52;;;;;;;10.05;3.05;;;;;;;27.72;36.34;100981.77;1717259;83;21679;-82
2021/07/09 05:17:18;;;;;;;6.62;2.37;;;;;;;27.88;36.26;100983.86;1715163;82;21097;-83
2021/07/09 05:19:46;;;;;;;6.40;2.77;;;;;;;28.06;35.86;100981.22;1698895;82;21523;-84
2021/07/09 05:22:13;;;;;;;12.18;3.02;;;;;;;28.29;33.85;100980.83;1705004;82;21035;-84
2021/07/09 05:24:41;;;;;;;6.95;2.50;;;;;;;28.38;35.32;100981.27;1711541;82;21147;-83
2021/07/09 05:27:08;;;;;;;7.15;2.40;;;;;;;28.50;34.45;100990.91;1726906;82;20990;-83
2021/07/09 05:29:36;;;;;;;17.23;3.00;;;;;;;28.69;34.09;100986.36;1704097;84;21082;-83
2021/07/09 05:32:04;;;;;;;11.78;2.58;;;;;;;29.01;34.61;100987.17;1704138;83;21081;-83
2021/07/09 05:34:31;;;;;;;10.43;3.10;;;;;;;29.30;33.94;100984.73;1704473;82;21056;-84
2021/07/09 05:36:58;;;;;;;11.75;3.02;;;;;;;29.40;33.80;100982.28;1706557;82;21647;-86
2021/07/09 05:39:25;;;;;;;18.17;3.20;;;;;;;29.54;33.28;100984.04;1713492;82;21031;-82
2021/07/09 05:41:52;;;;;;;8.03;2.95;;;;;;;29.58;33.37;100991.70;1715843;82;21046;-83
2021/07/09 05:44:19;;;;;;;12.65;3.08;;;;;;;29.72;32.37;100983.51;1709296;82;22256;-83
2021/07/09 05:46:47;;;;;;;7.12;2.30;;;;;;;29.82;32.84;100981.55;1710186;82;21074;-84
2021/07/09 05:49:15;;;;;;;9.13;2.58;;;;;;;30.18;32.78;100975.91;1706791;82;21140;-81
2021/07/09 05:51:43;;;;;;;7.70;3.08;;;;;;;30.59;31.64;100978.78;1713391;82;21109;-87
2021/07/09 05:54:10;;;;;;;16.90;2.80;;;;;;;30.91;29.88;100971.72;1705716;82;21076;-83
2021/07/09 05:56:39;;;;;;;7.58;2.35;;;;;;;31.03;29.90;100976.31;1721959;82;21062;-83
2021/07/09 05:59:06;;;;;;;9.10;2.47;;;;;;;30.99;29.54;100967.66;1720383;82;21130;-85
2021/07/09 06:01:36;;;;;;;9.85;2.30;;;;;;;31.02;29.88;100967.83;1692794;84;21927;-84
2021/07/09 06:04:04;;;;;;;11.75;2.27;;;;;;;31.11;30.45;100969.52;1670250;84;21077;-83
2021/07/09 06:06:32;;;;;;;10.20;2.50;;;;;;;31.21;29.19;100967.98;1705469;82;22528;-82
2021/07/09 06:08:59;;;;;;;10.08;2.55;;;;;;;31.43;29.04;100965.95;1711013;82;21058;-84
2021/07/09 06:11:29;;;;;;;10.95;2.52;;;;;;;32.01;27.68;100961.72;1726119;82;20987;-84
2021/07/09 06:13:56;;;;;;;10.23;2.58;;;;;;;32.01;27.68;100961.72;1697185;82;21348;-82
2021/07/09 06:16:23;;;;;;;7.03;2.72;;;;;;;32.12;28.04;100964.90;1711679;81;21046;-83
2021/07/09 06:18:50;;;;;;;7.50;2.00;;;;;;;32.22;27.76;100960.59;1718783;82;21076;-82
2021/07/09 06:21:18;;;;;;;5.12;2.30;;;;;;;32.30;27.36;100955.11;1735102;82;21077;-83
2021/07/09 06:23:44;;;;;;;8.03;2.00;;;;;;;32.48;25.20;100957.53;1742011;82;21408;-85
2021/07/09 06:26:12;;;;;;;6.47;1.80;;;;;;;32.49;25.73;100955.67;1730296;82;21117;-82
2021/07/09 06:28:39;;;;;;;3.65;2.12;;;;;;;32.50;25.48;100957.36;1726371;82;21058;-87
2021/07/09 06:31:06;;;;;;;8.55;2.00;;;;;;;32.49;25.58;100959.24;1725694;82;21013;-82
2021/07/09 06:33:33;;;;;;;7.75;2.00;;;;;;;32.47;26.12;100955.84;1730245;82;21140;-82
2021/07/09 06:36:00;;;;;;;8.23;1.85;;;;;;;32.59;25.55;100957.67;1726469;82;21136;-82
2021/07/09 06:38:27;;;;;;;12.00;1.92;;;;;;;32.67;24.88;100958.98;1737994;82;22108;-83
2021/07/09 06:40:55;;;;;;;15.15;2.25;;;;;;;32.67;24.83;100961.72;1708744;82;21095;-82
2021/07/09 06:43:22;;;;;;;8.25;1.80;;;;;;;32.75;24.73;100967.09;1724117;82;21120;-85
2021/07/09 06:45:49;;;;;;;9.13;1.87;;;;;;;32.81;24.15;100963.65;1717878;82;21018;-84
2021/07/09 06:48:16;;;;;;;10.10;2.25;;;;;;;32.90;24.87;100966.30;1723218;82;21067;-85
2021/07/09 06:50:43;;;;;;;12.20;2.15;;;;;;;33.13;25.56;100963.57;1733822;82;21508;-86
2021/07/09 06:53:10;;;;;;;6.05;1.47;;;;;;;33.14;23.88;100957.94;1731053;82;21081;-86
2021/07/09 06:55:37;;;;;;;6.20;1.75;;;;;;;33.07;23.99;100956.14;1726234;82;21018;-86
2021/07/09 06:58:04;;;;;;;9.30;1.90;;;;;;;33.12;24.66;100953.18;1736531;80;21651;-79
2021/07/09 07:00:31;;;;;;;14.20;1.98;;;;;;;33.09;24.26;100960.38;1734502;80;21029;-80
2021/07/09 07:02:58;;;;;;;6.85;2.02;;;;;;;32.95;24.57;100948.89;1717250;82;21064;-78
2021/07/09 07:05:25;;;;;;;6.17;1.85;;;;;;;32.99;24.92;100952.42;1717322;82;21039;-79
2021/07/09 07:07:52;;;;;;;4.95;1.60;;;;;;;33.12;23.44;100954.55;1719746;82;21575;-79
2021/07/09 07:10:19;;;;;;;15.98;2.17;;;;;;;33.12;24.09;100950.45;1725249;82;21038;-81
2021/07/09 07:12:48;;;;;;;13.78;2.02;;;;;;;33.09;23.87;100959.02;1717888;82;21061;-78
2021/07/09 07:15:16;;;;;;;6.58;1.77;;;;;;;33.01;23.15;100952.22;1728759;82;21133;-79
2021/07/09 07:17:45;;;;;;;7.50;1.90;;;;;;;32.96;23.35;100953.30;1708911;82;21078;-79
2021/07/09 07:20:13;;;;;;;6.53;1.80;;;;;;;33.05;23.93;100944.04;1711347;82;21106;-80
2021/07/09 07:22:40;;;;;;;3.62;1.40;;;;;;;33.03;23.16;100958.34;1707386;82;21095;-80
2021/07/09 07:25:09;;;;;;;4.15;1.90;;;;;;;32.87;22.82;100951.14;1720876;82;21692;-80
2021/07/09 07:27:37;;;;;;;9.33;1.67;;;;;;;32.81;23.65;100947.28;1711544;82;22002;-78
2021/07/09 07:30:06;;;;;;;3.42;1.65;;;;;;;32.92;23.11;100941.05;1709656;82;21510;-79
2021/07/09 07:32:33;;;;;;;6.78;1.92;;;;;;;32.98;24.41;100938.95;1706725;82;21058;-80
2021/07/09 07:35:00;;;;;;;13.40;1.95;;;;;;;33.02;23.55;100937.56;1722439;82;21569;-80
2021/07/09 07:37:27;;;;;;;6.37;1.57;;;;;;;32.98;22.78;100940.33;1708540;82;21031;-81
2021/07/09 07:39:55;;;;;;;6.53;1.67;;;;;;;32.88;22.28;100941.11;1724014;82;22074;-80
2021/07/09 07:42:23;;;;;;;4.28;1.60;;;;;;;32.89;22.66;100941.42;1705280;82;21138;-80
2021/07/09 07:44:50;;;;;;;4.42;1.35;;;;;;;32.85;22.73;100936.00;1717832;82;21000;-86
2021/07/09 07:47:21;;;;;;;7.17;1.65;;;;;;;32.86;22.49;100937.71;1697999;82;21077;-83
2021/07/09 07:49:48;;;;;;;12.85;1.95;;;;;;;32.77;22.59;100929.58;1715199;82;21466;-81
2021/07/09 07:52:15;;;;;;;2.30;1.47;;;;;;;32.69;23.79;100925.54;1719156;82;21118;-80
2021/07/09 07:54:42;;;;;;;5.70;1.80;;;;;;;32.89;23.43;100916.88;1715309;82;21691;-77
2021/07/09 07:57:09;;;;;;;2.75;1.60;;;;;;;33.03;22.99;100917.42;1687984;84;21059;-77
2021/07/09 07:59:36;;;;;;;5.62;1.98;;;;;;;33.11;23.50;100913.81;1726980;82;21030;-81
2021/07/09 08:02:03;;;;;;;10.15;1.90;;;;;;;33.41;23.37;100920.16;1722148;82;21077;-85
2021/07/09 08:04:30;;;;;;;7.30;1.80;;;;;;;33.50;23.34;100922.25;1714795;82;21560;-82
2021/07/09 08:06:57;;;;;;;5.90;1.85;;;;;;;33.54;23.11;100914.86;1704825;82;21006;-86
2021/07/09 08:09:24;;;;;;;5.67;1.52;;;;;;;33.87;22.47;100914.52;1709094;82;21118;-82
2021/07/09 08:11:53;;;;;;;2.75;1.75;;;;;;;34.15;22.46;100911.94;1712928;82;21085;-80
2021/07/09 08:14:20;;;;;;;3.47;1.55;;;;;;;34.26;21.60;100920.16;1706803;82;21098;-83
2021/07/09 08:16:53;;;;;;;4.42;1.80;;;;;;;34.18;21.60;100917.53;1710393;81;21573;-78
2021/07/09 08:19:20;;;;;;;5.35;2.20;;;;;;;34.09;22.63;100917.28;1723594;82;21654;-76
2021/07/09 08:21:48;;;;;;;5.12;1.82;;;;;;;33.93;22.86;100910.16;1740099;82;21057;-77
2021/07/09 08:24:16;;;;;;;7.85;1.90;;;;;;;34.10;23.70;100914.41;1715399;82;21116;-76
2021/07/09 08:26:47;;;;;;;6.50;1.98;;;;;;;34.12;23.50;100908.73;1714420;82;21041;-76
2021/07/09 08:29:14;;;;;;;29.82;3.52;;;;;;;33.98;22.73;100916.76;1725290;82;21182;-77
2021/07/09 08:31:41;;;;;;;4.67;1.92;;;;;;;33.82;22.92;100916.45;1726900;82;21579;-78
2021/07/09 08:34:08;;;;;;;6.45;2.08;;;;;;;33.28;24.11;100915.33;1726944;82;21085;-78
2021/07/09 08:36:35;;;;;;;7.87;2.25;;;;;;;33.20;24.29;100912.70;1725918;82;21217;-77
2021/07/09 08:39:03;;;;;;;10.30;1.70;;;;;;;33.56;23.92;100907.33;1730355;82;21077;-77
2021/07/09 08:41:32;;;;;;;5.80;2.05;;;;;;;33.73;23.15;100908.03;1727086;82;21136;-79
2021/07/09 08:43:59;;;;;;;6.55;1.90;;;;;;;33.51;23.39;100904.33;1726920;82;21065;-77
2021/07/09 08:46:27;;;;;;;6.37;1.65;;;;;;;33.14;24.02;100905.25;1730703;82;21045;-75
2021/07/09 08:48:54;;;;;;;6.37;1.82;;;;;;;32.80;24.31;100896.47;1731178;82;21124;-76
2021/07/09 08:51:21;;;;;;;6.10;1.87;;;;;;;32.32;24.95;100895.78;1730685;82;21069;-77
2021/07/09 08:53:48;;;;;;;3.12;1.65;;;;;;;32.12;25.29;100889.97;1731372;82;22123;-77
2021/07/09 08:56:15;;;;;;;4.12;1.70;;;;;;;32.10;25.32;100885.73;1726961;82;21061;-77
2021/07/09 08:58:42;;;;;;;5.58;1.82;;;;;;;32.57;25.35;100887.47;1728962;82;21049;-78
2021/07/09 09:01:12;;;;;;;6.22;1.85;;;;;;;32.92;24.70;100886.48;1732413;82;21521;-79
2021/07/09 09:03:39;;;;;;;10.18;2.00;;;;;;;32.99;24.78;100880.62;1728115;82;21107;-77
2021/07/09 09:06:06;;;;;;;5.35;1.87;;;;;;;33.30;24.34;100874.21;1729112;82;21896;-78
2021/07/09 09:08:34;;;;;;;7.67;1.77;;;;;;;33.52;24.27;100872.40;1705903;82;21112;-78
2021/07/09 09:11:01;;;;;;;12.28;2.08;;;;;;;33.33;24.33;100871.94;1732203;82;21532;-79
2021/07/09 09:13:31;;;;;;;3.58;1.90;;;;;;;33.15;24.64;100868.72;1742333;82;21077;-80
2021/07/09 09:16:14;;;;;;;4.85;1.75;;;;;;;32.92;24.64;100875.58;1730198;82;21021;-80
2021/07/09 09:18:47;;;;;;;4.67;1.70;;;;;;;32.90;24.57;100870.82;1705956;81;21498;-78
2021/07/09 09:21:21;;;;;;;2.80;2.00;;;;;;;32.80;24.61;100867.84;1711486;82;21093;-81
2021/07/09 09:23:55;;;;;;;6.30;1.80;;;;;;;32.91;24.98;100867.08;1705063;84;21062;-79
2021/07/09 09:26:49;;;;;;;2.90;1.77;;;;;;;33.16;25.42;100864.45;1704455;83;21109;-80
2021/07/09 09:29:37;;;;;;;6.65;2.10;;;;;;;33.40;24.31;100862.48;1718926;82;21073;-79
2021/07/09 09:32:07;;;;;;;6.37;1.98;;;;;;;33.75;24.10;100855.92;1698465;82;21106;-80
2021/07/09 09:34:45;;;;;;;2.92;1.60;;;;;;;34.19;23.70;100855.02;1726277;82;21622;-79
2021/07/09 09:37:19;;;;;;;;;;;;;;;34.04;23.13;100853.13;1736761;82;21598;-78
2021/07/09 09:39:47;;;;;;;8.73;2.30;;;;;;;33.72;24.17;100860.41;1710048;82;20185;-80
2021/07/09 09:42:21;;;;;;;4.45;1.70;;;;;;;33.59;23.58;100866.05;1721947;82;21054;-79
2021/07/09 09:44:54;;;;;;;4.22;1.72;;;;;;;33.64;23.60;100863.58;1704970;84;21082;-80
2021/07/09 09:47:23;;;;;;;6.30;2.00;;;;;;;33.82;23.67;100865.05;1704866;84;21085;-81
2021/07/09 09:49:55;;;;;;;6.72;1.65;;;;;;;34.17;23.75;100852.98;1704834;82;21152;-80
2021/07/09 09:52:38;;;;;;;6.12;1.57;;;;;;;34.61;23.48;100842.39;1705829;82;21118;-79
2021/07/09 09:55:12;;;;;;;6.08;2.10;;;;;;;34.96;22.89;100843.81;1733683;82;21002;-79
2021/07/09 09:57:41;;;;;;;6.62;1.72;;;;;;;35.00;23.10;100846.48;1728986;82;21169;-81
2021/07/09 10:00:23;;;;;;;2.67;1.65;;;;;;;34.53;22.54;100853.42;1709771;82;21086;-79
2021/07/09 10:02:50;;;;;;;6.08;2.17;;;;;;;33.97;23.30;100838.54;1704413;83;21611;-79
2021/07/09 10:05:17;;;;;;;5.58;2.08;;;;;;;33.88;23.67;100846.53;1704739;82;21501;-79
2021/07/09 10:07:45;;;;;;;5.37;1.77;;;;;;;34.09;23.35;100838.03;1705047;84;21320;-81
2021/07/09 10:10:13;;;;;;;6.72;1.77;;;;;;;34.24;24.10;100841.59;1704996;82;22071;-81
2021/07/09 10:12:39;;;;;;;5.50;1.80;;;;;;;34.25;23.46;100843.28;1704680;84;21513;-80
2021/07/09 10:15:09;;;;;;;6.60;1.55;;;;;;;33.87;23.55;100835.29;1685124;83;21085;-81
2021/07/09 10:17:37;;;;;;;2.72;1.65;;;;;;;33.44;23.67;100841.95;1731252;81;21465;-79
2021/07/09 10:20:06;;;;;;;5.20;1.62;;;;;;;33.12;24.31;100844.55;1744005;82;21092;-79
2021/07/09 10:22:33;;;;;;;6.42;2.10;;;;;;;33.03;24.89;100839.14;1720388;82;21124;-81
2021/07/09 10:25:00;;;;;;;6.33;2.10;;;;;;;33.01;24.96;100834.91;1745505;82;21548;-80
2021/07/09 10:27:27;;;;;;;9.90;1.95;;;;;;;32.96;25.17;100837.35;1747694;82;21049;-79
2021/07/09 10:29:55;;;;;;;6.55;1.92;;;;;;;33.00;24.78;100827.77;1748126;82;21065;-80
2021/07/09 10:32:40;;;;;;;8.20;1.80;;;;;;;33.30;25.11;100816.89;1734983;82;21592;-80
2021/07/09 10:35:37;;;;;;;3.15;1.75;;;;;;;33.69;24.61;100808.91;1740565;82;21553;-81
2021/07/09 10:38:21;;;;;;;5.87;1.85;;;;;;;34.13;23.77;100810.16;1731609;82;21060;-81
2021/07/09 10:40:48;;;;;;;3.67;2.08;;;;;;;34.23;23.82;100807.96;1748408;82;21545;-81
2021/07/09 10:43:16;;;;;;;6.85;2.17;;;;;;;34.51;23.77;100811.75;1740190;82;21037;-79
2021/07/09 10:45:43;;;;;;;4.47;2.00;;;;;;;34.44;23.76;100819.40;1748333;82;21551;-80
2021/07/09 10:48:15;;;;;;;7.67;2.02;;;;;;;33.94;24.02;100800.69;1748748;82;22136;-79
2021/07/09 10:50:54;;;;;;;6.65;2.10;;;;;;;33.75;23.48;100799.44;1747988;82;21073;-80
2021/07/09 10:53:29;;;;;;;3.72;1.95;;;;;;;33.67;23.96;100800.06;1748149;82;21513;-82
2021/07/09 10:56:07;;;;;;;10.20;2.20;;;;;;;33.68;24.33;100799.02;1730223;82;21046;-81
2021/07/09 10:58:40;;;;;;;5.60;2.05;;;;;;;33.47;24.40;100799.25;1733487;82;21022;-80
2021/07/09 11:01:21;;;;;;;3.10;1.70;;;;;;;33.25;24.45;100797.52;1718538;82;21924;-80
2021/07/09 11:04:02;;;;;;;4.92;1.77;;;;;;;33.20;24.83;100795.35;1718697;83;21116;-80
2021/07/09 11:06:36;;;;;;;4.53;1.92;;;;;;;33.11;24.74;100778.22;1743034;82;21037;-82
2021/07/09 11:09:06;;;;;;;4.37;2.00;;;;;;;33.41;25.27;100772.73;1748264;82;21029;-81
2021/07/09 11:11:52;;;;;;;7.03;2.27;;;;;;;33.73;24.73;100765.13;1747640;82;21080;-80
2021/07/09 11:14:36;;;;;;;6.25;2.00;;;;;;;33.98;24.45;100774.67;1731260;82;21477;-82
2021/07/09 11:17:15;;;;;;;8.80;2.17;;;;;;;33.63;24.56;100760.83;1738962;82;21046;-79
2021/07/09 11:19:43;;;;;;;7.08;2.47;;;;;;;33.63;24.80;100766.29;1735364;82;21017;-79
2021/07/09 11:22:12;;;;;;;8.68;2.40;;;;;;;33.95;24.44;100774.20;1731275;82;21037;-81
2021/07/09 11:24:53;;;;;;;6.87;2.20;;;;;;;34.09;24.35;100772.45;1731244;82;21104;-83
2021/07/09 11:27:25;;;;;;;6.25;1.95;;;;;;;34.24;24.24;100769.16;1726352;82;21131;-80
2021/07/09 11:29:56;;;;;;;;;;;;;;;34.15;23.90;100764.34;1739022;82;21398;-79
2021/07/09 11:32:21;;;;;;;4.30;2.02;;;;;;;34.33;24.14;100755.68;1734214;80;20226;-80